Time;durP1;ratioP1;P1;durP2;ratioP2;P2;SDS_P1;SDS_P2;PMS_P1;PMS_P2;Temp;Humidity;BMP_temperature;BMP_pressure;BME280_temperature;BME280_humidity;BME280_pressure;Samples;Min_cycle;Max_cycle;Signal;HPM_P1;HPM_P2
2022/07/26 00:00:30;;;;;;;160.82;145.75;;;20.00;95.10;;;;;;4972748;28;20055;-78
2022/07/26 00:02:57;;;;;;;163.80;148.65;;;20.00;95.10;;;;;;5002623;28;20062;-78
2022/07/26 00:05:24;;;;;;;160.93;146.13;;;20.00;95.10;;;;;;4974584;28;20087;-78
2022/07/26 00:08:18;;;;;;;157.68;142.85;;;19.90;95.10;;;;;;4991553;28;20047;-78
2022/07/26 00:10:47;;;;;;;160.82;145.27;;;19.90;95.10;;;;;;5000666;28;20047;-79
2022/07/26 00:13:16;;;;;;;164.98;149.82;;;19.90;95.20;;;;;;4983003;28;20487;-78
2022/07/26 00:15:43;;;;;;;162.65;147.30;;;19.90;95.20;;;;;;4970126;28;20150;-79
2022/07/26 00:18:10;;;;;;;165.77;150.18;;;19.90;95.20;;;;;;4999448;28;20131;-78
2022/07/26 00:20:37;;;;;;;163.35;148.15;;;19.90;95.30;;;;;;4969601;28;20047;-78
2022/07/26 00:23:04;;;;;;;166.65;150.98;;;19.80;95.20;;;;;;4968534;28;20059;-78
2022/07/26 00:25:32;;;;;;;168.70;152.70;;;19.90;95.30;;;;;;4967236;28;20051;-79
2022/07/26 00:27:59;;;;;;;165.50;149.63;;;19.80;95.30;;;;;;4969224;28;20142;-78
2022/07/26 00:30:27;;;;;;;164.35;148.70;;;19.80;95.30;;;;;;4968817;28;20047;-78
2022/07/26 00:32:54;;;;;;;165.23;149.25;;;19.80;95.30;;;;;;4984546;28;20051;-78
2022/07/26 00:35:21;;;;;;;164.95;149.25;;;19.80;95.30;;;;;;4968551;28;20115;-78
2022/07/26 00:37:48;;;;;;;160.93;145.45;;;19.80;95.40;;;;;;4967426;28;20108;-78
2022/07/26 00:40:16;;;;;;;162.23;147.02;;;19.80;95.40;;;;;;4967520;28;20062;-78
2022/07/26 00:42:44;;;;;;;164.10;148.10;;;19.70;95.40;;;;;;4999917;28;20553;-78
2022/07/26 00:45:12;;;;;;;160.18;144.93;;;19.70;95.50;;;;;;5000765;28;20058;-78
2022/07/26 00:47:39;;;;;;;164.38;149.02;;;19.70;95.50;;;;;;4999887;28;20125;-78
2022/07/26 00:50:09;;;;;;;161.38;145.90;;;19.70;95.60;;;;;;4967544;28;20055;-78
2022/07/26 00:52:37;;;;;;;163.43;148.05;;;19.70;95.70;;;;;;4983269;28;20058;-78
2022/07/26 00:55:06;;;;;;;164.15;148.38;;;19.60;95.70;;;;;;4981613;28;20138;-78
2022/07/26 00:57:34;;;;;;;170.02;154.18;;;19.60;95.70;;;;;;4967853;28;20051;-78
2022/07/26 01:00:04;;;;;;;165.20;149.27;;;19.70;95.80;;;;;;5001108;28;20067;-78
2022/07/26 01:02:31;;;;;;;166.10;150.30;;;19.60;95.90;;;;;;4999443;28;20178;-78
2022/07/26 01:04:58;;;;;;;164.80;149.32;;;19.60;95.80;;;;;;4967526;28;20051;-78
2022/07/26 01:07:25;;;;;;;165.35;149.10;;;19.60;95.90;;;;;;4968740;28;20715;-78
2022/07/26 01:09:52;;;;;;;162.77;147.52;;;19.60;96.00;;;;;;4967310;28;20130;-78
2022/07/26 01:12:19;;;;;;;164.73;149.45;;;19.50;96.00;;;;;;4999954;28;20501;-78
2022/07/26 01:14:46;;;;;;;166.65;151.18;;;19.50;96.10;;;;;;4967541;28;20540;-78
2022/07/26 01:17:15;;;;;;;162.60;147.10;;;19.50;96.20;;;;;;4967947;28;20051;-78
2022/07/26 01:19:42;;;;;;;160.93;145.52;;;19.50;96.20;;;;;;4997192;28;20620;-78
2022/07/26 01:22:10;;;;;;;159.75;144.43;;;19.50;96.20;;;;;;4967427;28;20413;-78
2022/07/26 01:24:37;;;;;;;162.23;146.82;;;19.50;96.30;;;;;;4967030;28;20052;-78
2022/07/26 01:27:04;;;;;;;163.43;148.27;;;19.40;96.30;;;;;;4966619;28;20143;-78
2022/07/26 01:29:31;;;;;;;165.20;149.23;;;19.40;96.40;;;;;;4966844;28;20055;-78
2022/07/26 01:31:58;;;;;;;163.70;148.23;;;19.40;96.50;;;;;;4967410;28;20051;-78
2022/07/26 01:34:25;;;;;;;162.15;146.50;;;19.40;96.50;;;;;;4967156;28;20119;-78
2022/07/26 01:36:53;;;;;;;163.77;147.80;;;19.40;96.60;;;;;;4966591;28;20403;-78
2022/07/26 01:39:21;;;;;;;171.82;155.32;;;19.40;96.60;;;;;;4966102;28;20052;-78
2022/07/26 01:41:48;;;;;;;163.55;147.93;;;19.30;96.50;;;;;;4966861;28;20059;-78
2022/07/26 01:44:15;;;;;;;168.00;151.90;;;19.30;96.50;;;;;;4997253;28;20051;-78
2022/07/26 01:46:42;;;;;;;164.30;148.98;;;19.30;96.50;;;;;;4966669;28;20051;-78
2022/07/26 01:49:09;;;;;;;164.70;149.02;;;19.30;96.50;;;;;;4968077;28;20520;-78
2022/07/26 01:51:36;;;;;;;163.75;148.52;;;19.20;96.40;;;;;;4965731;28;20055;-78
2022/07/26 01:54:03;;;;;;;167.43;151.63;;;19.20;96.40;;;;;;4967963;28;20130;-78
2022/07/26 01:56:31;;;;;;;165.73;149.82;;;19.20;96.40;;;;;;4966682;28;20047;-78
2022/07/26 01:58:58;;;;;;;163.63;148.25;;;19.20;96.50;;;;;;4997893;28;20165;-78
2022/07/26 02:01:25;;;;;;;164.18;148.80;;;19.10;96.50;;;;;;4965524;28;20062;-78
2022/07/26 02:03:52;;;;;;;164.15;148.57;;;19.20;96.60;;;;;;4965866;28;20052;-78
2022/07/26 02:06:19;;;;;;;166.85;150.90;;;19.10;96.60;;;;;;4966630;28;20730;-78
2022/07/26 02:08:46;;;;;;;162.27;146.68;;;19.20;96.70;;;;;;4965382;28;20050;-78
2022/07/26 02:11:12;;;;;;;162.00;146.77;;;19.10;96.60;;;;;;4999599;28;20057;-79
2022/07/26 02:13:42;;;;;;;161.95;146.48;;;19.10;96.70;;;;;;4999678;28;20055;-78
2022/07/26 02:16:11;;;;;;;159.73;144.65;;;19.10;96.70;;;;;;4971360;28;20438;-78
2022/07/26 02:18:39;;;;;;;161.18;146.18;;;19.10;96.70;;;;;;5002016;28;20134;-78
2022/07/26 02:21:07;;;;;;;160.07;145.23;;;19.10;96.70;;;;;;5002520;28;20047;-78
2022/07/26 02:23:34;;;;;;;160.05;144.73;;;19.10;96.70;;;;;;5001940;28;20047;-78
2022/07/26 02:26:02;;;;;;;159.27;143.75;;;19.10;96.70;;;;;;4971212;28;20079;-77
2022/07/26 02:28:29;;;;;;;159.80;144.80;;;19.00;96.60;;;;;;4971204;28;20059;-78
2022/07/26 02:30:57;;;;;;;160.48;145.68;;;19.00;96.60;;;;;;4970228;28;20472;-78
2022/07/26 02:33:24;;;;;;;158.95;144.00;;;19.00;96.70;;;;;;4986686;28;20410;-78
2022/07/26 02:35:51;;;;;;;155.30;140.85;;;19.00;96.70;;;;;;4971639;28;20054;-79
2022/07/26 02:38:18;;;;;;;157.95;143.23;;;19.00;96.70;;;;;;4969463;28;20059;-78
2022/07/26 02:40:45;;;;;;;157.15;142.70;;;19.00;96.70;;;;;;4969328;28;20536;-78
2022/07/26 02:43:12;;;;;;;158.10;143.45;;;19.00;96.70;;;;;;4970772;28;20089;-78
2022/07/26 02:45:39;;;;;;;161.93;146.68;;;19.00;96.80;;;;;;4968304;28;20521;-79
2022/07/26 02:48:07;;;;;;;159.48;144.50;;;19.00;96.70;;;;;;4968120;28;20051;-79
2022/07/26 02:50:35;;;;;;;158.25;143.65;;;19.00;96.70;;;;;;4996015;28;20059;-79
2022/07/26 02:53:02;;;;;;;161.45;146.55;;;19.00;96.70;;;;;;5001489;28;20055;-78
2022/07/26 02:55:28;;;;;;;160.02;145.27;;;18.90;96.70;;;;;;4970150;28;20051;-78
2022/07/26 02:57:55;;;;;;;157.27;143.00;;;19.00;96.70;;;;;;4983494;28;20086;-79
2022/07/26 03:00:24;;;;;;;159.90;145.25;;;18.90;96.80;;;;;;4967886;28;20061;-79
2022/07/26 03:02:52;;;;;;;156.38;142.05;;;18.90;96.80;;;;;;4967112;28;20052;-79
2022/07/26 03:05:20;;;;;;;155.50;141.13;;;18.90;96.80;;;;;;4966956;28;20510;-79
2022/07/26 03:07:48;;;;;;;156.70;142.30;;;18.90;96.90;;;;;;4983062;28;20055;-79
2022/07/26 03:10:15;;;;;;;156.13;141.93;;;18.90;97.00;;;;;;4969106;28;20149;-79
2022/07/26 03:12:43;;;;;;;159.00;144.32;;;18.80;97.00;;;;;;4969064;28;21719;-79
2022/07/26 03:15:11;;;;;;;152.95;139.20;;;18.80;97.00;;;;;;4967767;28;20581;-79
2022/07/26 03:17:38;;;;;;;156.90;142.15;;;18.80;97.10;;;;;;4968940;28;20062;-79
2022/07/26 03:20:05;;;;;;;156.95;142.55;;;18.80;97.10;;;;;;4969425;28;20063;-79
2022/07/26 03:22:34;;;;;;;154.13;139.93;;;18.80;97.20;;;;;;4985027;28;20051;-79
2022/07/26 03:25:01;;;;;;;153.98;139.82;;;18.80;97.20;;;;;;4969532;28;20055;-78
2022/07/26 03:27:28;;;;;;;156.18;141.95;;;18.80;97.20;;;;;;4968145;28;20504;-79
2022/07/26 03:29:55;;;;;;;156.30;142.05;;;18.80;97.30;;;;;;4970608;28;20065;-78
2022/07/26 03:32:22;;;;;;;157.88;143.18;;;18.80;97.30;;;;;;4969932;28;20627;-78
2022/07/26 03:34:49;;;;;;;155.70;141.60;;;18.80;97.30;;;;;;4968715;28;20485;-78
2022/07/26 03:37:16;;;;;;;152.32;138.45;;;18.80;97.30;;;;;;4968546;28;20132;-78
2022/07/26 03:39:44;;;;;;;157.27;142.80;;;18.80;97.30;;;;;;4968666;28;20486;-78
2022/07/26 03:42:11;;;;;;;159.10;144.60;;;18.80;97.20;;;;;;4966853;28;20522;-78
2022/07/26 03:44:38;;;;;;;156.52;142.43;;;18.80;97.10;;;;;;4969263;28;20484;-79
2022/07/26 03:47:05;;;;;;;155.43;141.30;;;18.80;97.10;;;;;;4984296;28;20395;-79
2022/07/26 03:49:32;;;;;;;153.45;139.65;;;18.80;97.00;;;;;;5000922;28;20489;-79
2022/07/26 03:51:59;;;;;;;156.00;141.50;;;18.80;96.90;;;;;;4985545;28;20059;-79
2022/07/26 03:54:26;;;;;;;156.18;141.48;;;18.90;97.00;;;;;;4968680;28;20050;-79
2022/07/26 03:56:53;;;;;;;155.80;141.48;;;18.80;97.10;;;;;;4970045;28;20085;-79
2022/07/26 03:59:20;;;;;;;153.65;139.25;;;18.80;96.90;;;;;;4985485;28;20066;-79
2022/07/26 04:01:47;;;;;;;155.48;140.98;;;18.90;96.90;;;;;;4967841;28;20055;-79
2022/07/26 04:04:17;;;;;;;154.88;140.48;;;18.80;96.80;;;;;;4967339;28;20134;-79
2022/07/26 04:06:46;;;;;;;154.73;140.63;;;18.90;96.90;;;;;;4977967;28;20162;-78
2022/07/26 04:09:15;;;;;;;158.05;143.35;;;18.80;96.90;;;;;;4969375;28;20051;-79
2022/07/26 04:11:42;;;;;;;156.93;142.30;;;18.80;96.90;;;;;;4982575;28;20142;-79
2022/07/26 04:14:10;;;;;;;157.00;142.38;;;18.80;96.80;;;;;;4969111;28;20123;-79
2022/07/26 04:16:37;;;;;;;159.88;145.00;;;18.80;96.90;;;;;;4969654;28;20082;-79
2022/07/26 04:19:04;;;;;;;217.23;196.35;;;18.80;97.00;;;;;;4968170;28;20047;-79
2022/07/26 04:21:31;;;;;;;192.15;173.80;;;18.80;96.90;;;;;;4969114;28;20051;-79
2022/07/26 04:23:58;;;;;;;246.07;222.55;;;18.80;96.90;;;;;;4968142;28;20047;-79
2022/07/26 04:26:25;;;;;;;249.27;225.80;;;18.80;96.90;;;;;;4967304;28;22342;-79
2022/07/26 04:28:52;;;;;;;236.43;214.18;;;18.80;96.90;;;;;;5000026;28;20055;-79
2022/07/26 04:31:21;;;;;;;228.07;206.60;;;18.80;97.00;;;;;;5001406;28;20098;-79
2022/07/26 04:33:47;;;;;;;227.32;206.05;;;18.80;97.00;;;;;;4969377;28;20074;-79
2022/07/26 04:36:15;;;;;;;237.35;215.38;;;18.80;96.90;;;;;;4983238;28;20055;-79
2022/07/26 04:38:42;;;;;;;233.35;211.35;;;18.80;96.90;;;;;;4968217;28;20055;-79
2022/07/26 04:41:09;;;;;;;220.27;199.00;;;18.80;96.80;;;;;;4984510;28;20624;-79
2022/07/26 04:43:36;;;;;;;226.55;205.13;;;18.80;96.80;;;;;;4966611;28;20047;-79
2022/07/26 04:46:02;;;;;;;213.48;193.40;;;18.80;96.70;;;;;;4967153;28;20055;-79
2022/07/26 04:48:31;;;;;;;217.45;196.90;;;18.80;96.80;;;;;;4967972;28;20066;-79
2022/07/26 04:50:57;;;;;;;202.00;182.60;;;18.80;96.70;;;;;;4968073;28;20057;-79
2022/07/26 04:53:24;;;;;;;233.05;210.85;;;18.80;96.60;;;;;;4967931;28;20055;-79
2022/07/26 04:55:51;;;;;;;224.82;203.07;;;18.80;96.60;;;;;;4967907;28;20175;-79
2022/07/26 04:58:18;;;;;;;231.35;209.20;;;18.80;96.50;;;;;;4968933;28;20142;-79
2022/07/26 05:00:45;;;;;;;220.98;199.77;;;18.80;96.40;;;;;;4965097;28;20058;-79
2022/07/26 05:03:12;;;;;;;206.80;186.50;;;18.80;96.30;;;;;;5001428;28;20066;-78
2022/07/26 05:05:40;;;;;;;221.45;200.05;;;18.80;96.30;;;;;;4969749;28;20055;-78
2022/07/26 05:08:07;;;;;;;229.45;206.95;;;18.80;96.20;;;;;;4968205;28;20047;-79
2022/07/26 05:10:36;;;;;;;223.70;202.50;;;18.70;96.20;;;;;;4986573;28;20051;-78
2022/07/26 05:13:04;;;;;;;230.55;208.48;;;18.70;96.10;;;;;;4972487;28;20090;-79
2022/07/26 05:15:32;;;;;;;226.98;205.38;;;18.70;96.10;;;;;;4969279;28;20983;-78
2022/07/26 05:18:02;;;;;;;226.52;204.57;;;18.70;96.00;;;;;;4970245;28;20524;-79
2022/07/26 05:20:28;;;;;;;214.20;193.30;;;18.70;96.00;;;;;;4969533;28;20058;-78
2022/07/26 05:22:57;;;;;;;224.65;203.32;;;18.70;96.00;;;;;;4969204;28;20047;-79
2022/07/26 05:25:24;;;;;;;220.02;199.02;;;18.70;96.00;;;;;;4968537;28;20059;-79
2022/07/26 05:27:51;;;;;;;231.52;209.32;;;18.70;96.00;;;;;;4965237;28;20058;-79
2022/07/26 05:30:18;;;;;;;220.27;199.43;;;18.70;95.80;;;;;;4971569;28;20083;-79
2022/07/26 05:32:45;;;;;;;207.40;187.55;;;18.70;95.80;;;;;;4969538;28;20059;-79
2022/07/26 05:35:12;;;;;;;198.32;179.23;;;18.70;95.70;;;;;;5001922;28;20135;-79
2022/07/26 05:37:39;;;;;;;208.57;188.77;;;18.70;95.60;;;;;;4968771;28;20506;-79
2022/07/26 05:40:09;;;;;;;211.13;190.63;;;18.70;95.50;;;;;;5003731;28;20143;-79
2022/07/26 05:42:36;;;;;;;207.20;186.75;;;18.70;95.40;;;;;;4965247;28;20114;-79
2022/07/26 05:45:03;;;;;;;194.38;175.48;;;18.70;95.30;;;;;;5000731;28;20143;-79
2022/07/26 05:47:30;;;;;;;181.90;164.35;;;18.70;95.20;;;;;;4985390;28;20044;-79
2022/07/26 05:49:57;;;;;;;172.15;155.40;;;18.60;95.30;;;;;;4970953;28;20057;-79
2022/07/26 05:52:24;;;;;;;174.32;157.63;;;18.60;95.30;;;;;;4971117;28;20134;-79
2022/07/26 05:54:51;;;;;;;222.95;201.48;;;18.60;95.30;;;;;;4970022;28;20062;-79
2022/07/26 05:57:19;;;;;;;224.63;203.13;;;18.60;95.30;;;;;;4968327;28;20998;-79
2022/07/26 05:59:46;;;;;;;215.70;194.52;;;18.60;95.30;;;;;;4971838;28;20055;-79
2022/07/26 06:02:13;;;;;;;187.90;169.20;;;18.60;95.40;;;;;;4971581;28;20058;-79
2022/07/26 06:04:40;;;;;;;180.45;162.55;;;18.60;95.30;;;;;;4973971;28;20051;-79
2022/07/26 06:07:07;;;;;;;184.50;166.20;;;18.50;95.40;;;;;;4975249;28;20051;-79
2022/07/26 06:09:34;;;;;;;180.32;162.55;;;18.50;95.50;;;;;;4976325;28;20130;-79
2022/07/26 06:12:01;;;;;;;172.68;154.90;;;18.50;95.60;;;;;;4974662;28;20107;-79
2022/07/26 06:14:29;;;;;;;225.55;203.35;;;18.50;95.50;;;;;;5006606;28;20062;-79
2022/07/26 06:16:56;;;;;;;211.77;190.85;;;18.50;95.60;;;;;;4973377;28;20047;-79
2022/07/26 06:19:23;;;;;;;210.68;190.20;;;18.50;95.60;;;;;;4971428;28;20175;-79
2022/07/26 06:21:50;;;;;;;211.95;191.38;;;18.50;95.60;;;;;;4972195;28;20135;-80
2022/07/26 06:24:17;;;;;;;204.13;184.13;;;18.40;95.70;;;;;;4973877;28;20059;-79
2022/07/26 06:26:45;;;;;;;201.57;181.65;;;18.40;95.60;;;;;;4974723;28;20059;-79
2022/07/26 06:29:12;;;;;;;210.93;190.15;;;18.40;95.50;;;;;;4974319;28;20125;-79
2022/07/26 06:31:41;;;;;;;207.00;186.30;;;18.40;95.50;;;;;;4975139;28;20082;-80
2022/07/26 06:34:08;;;;;;;210.63;190.02;;;18.40;95.50;;;;;;4974896;28;20142;-79
2022/07/26 06:36:35;;;;;;;195.23;176.13;;;18.40;95.60;;;;;;5004513;28;20111;-81
2022/07/26 06:39:02;;;;;;;189.55;170.95;;;18.40;95.80;;;;;;4970485;28;20062;-86
2022/07/26 06:41:29;;;;;;;197.65;177.57;;;18.40;95.80;;;;;;4991262;28;20087;-82
2022/07/26 06:43:56;;;;;;;194.82;175.30;;;18.40;95.80;;;;;;4974304;28;20114;-85
2022/07/26 06:46:23;;;;;;;209.63;188.98;;;18.40;95.70;;;;;;4973725;28;20565;-86
2022/07/26 06:48:52;;;;;;;203.13;183.15;;;18.50;95.80;;;;;;4974211;28;20144;-84
2022/07/26 06:51:19;;;;;;;172.95;155.45;;;18.50;95.90;;;;;;4974510;28;20548;-83
2022/07/26 06:53:46;;;;;;;164.73;148.48;;;18.50;95.80;;;;;;4972154;28;20142;-78
2022/07/26 06:56:14;;;;;;;162.43;146.90;;;18.50;95.60;;;;;;4974625;28;20047;-79
2022/07/26 06:58:41;;;;;;;159.85;143.93;;;18.50;95.30;;;;;;4974060;28;20126;-78
2022/07/26 07:01:08;;;;;;;158.75;143.55;;;18.50;95.10;;;;;;4969158;28;20047;-80
2022/07/26 07:03:35;;;;;;;157.27;142.00;;;18.50;95.10;;;;;;4965873;28;20501;-74
2022/07/26 07:06:04;;;;;;;159.77;144.38;;;18.50;95.00;;;;;;5005601;28;20517;-79
2022/07/26 07:08:31;;;;;;;157.65;142.38;;;18.50;95.00;;;;;;4972328;28;20948;-79
2022/07/26 07:10:58;;;;;;;159.48;144.18;;;18.50;95.00;;;;;;4969804;28;20062;-78
2022/07/26 07:13:25;;;;;;;161.60;146.15;;;18.60;95.10;;;;;;5003626;28;20047;-76
2022/07/26 07:15:52;;;;;;;160.48;144.65;;;18.60;94.90;;;;;;4983936;28;20063;-79
2022/07/26 07:18:19;;;;;;;161.27;145.85;;;18.60;94.80;;;;;;5005906;28;20055;-79
2022/07/26 07:20:46;;;;;;;163.00;147.75;;;18.60;94.80;;;;;;4969718;28;20108;-77
2022/07/26 07:23:14;;;;;;;163.20;148.10;;;18.60;94.80;;;;;;4973534;28;20055;-82
2022/07/26 07:25:41;;;;;;;158.10;143.25;;;18.60;94.60;;;;;;4973816;28;20047;-83
2022/07/26 07:28:08;;;;;;;156.88;141.88;;;18.60;94.50;;;;;;4973516;28;20517;-78
2022/07/26 07:30:35;;;;;;;158.07;143.18;;;18.60;94.50;;;;;;4970779;28;20051;-75
2022/07/26 07:33:02;;;;;;;159.07;143.88;;;18.60;94.50;;;;;;4989802;28;20051;-76
2022/07/26 07:35:29;;;;;;;158.50;143.48;;;18.60;94.40;;;;;;4971992;28;20085;-77
2022/07/26 07:37:56;;;;;;;158.40;143.40;;;18.60;94.30;;;;;;5002509;28;20619;-76
2022/07/26 07:40:24;;;;;;;157.07;142.15;;;18.60;94.20;;;;;;5003792;28;20134;-83
2022/07/26 07:42:51;;;;;;;159.80;144.82;;;18.70;94.10;;;;;;5004897;28;20138;-81
2022/07/26 07:45:18;;;;;;;156.80;142.00;;;18.60;94.00;;;;;;4973572;28;20059;-81
2022/07/26 07:47:45;;;;;;;155.05;139.90;;;18.70;94.00;;;;;;5003552;28;20838;-81
2022/07/26 07:50:12;;;;;;;155.90;141.00;;;18.70;93.80;;;;;;4973106;28;20138;-81
2022/07/26 07:52:39;;;;;;;158.52;143.52;;;18.70;93.80;;;;;;4972154;28;20153;-80
2022/07/26 07:55:07;;;;;;;161.63;146.63;;;18.70;93.80;;;;;;4971821;28;20527;-80
2022/07/26 07:57:36;;;;;;;159.93;145.07;;;18.70;94.10;;;;;;4969012;28;21114;-81
2022/07/26 08:00:04;;;;;;;158.82;143.90;;;18.70;94.20;;;;;;4969523;28;20047;-80
2022/07/26 08:02:38;;;;;;;159.90;144.60;;;18.70;94.10;;;;;;4986921;28;20505;-81
2022/07/26 08:05:06;;;;;;;159.10;144.27;;;18.70;94.10;;;;;;4971813;28;20059;-80
2022/07/26 08:07:33;;;;;;;153.93;139.63;;;18.70;94.10;;;;;;5000236;28;20521;-79
2022/07/26 08:10:00;;;;;;;158.23;143.23;;;18.70;94.00;;;;;;4972965;28;20070;-78
2022/07/26 08:12:27;;;;;;;160.93;145.90;;;18.70;94.00;;;;;;4997675;28;20065;-79
2022/07/26 08:14:55;;;;;;;159.65;144.88;;;18.70;94.10;;;;;;5002646;28;20056;-80
2022/07/26 08:17:22;;;;;;;160.50;145.65;;;18.70;94.10;;;;;;4972989;28;20202;-80
2022/07/26 08:19:49;;;;;;;165.20;149.98;;;18.70;94.00;;;;;;4972830;28;20067;-76
2022/07/26 08:22:16;;;;;;;160.75;146.10;;;18.70;93.90;;;;;;4972520;28;20051;-80
2022/07/26 08:24:45;;;;;;;160.25;145.77;;;18.80;93.80;;;;;;4973058;28;20047;-81
2022/07/26 08:30:42;;;;;;;157.98;143.15;;;18.80;93.60;;;;;;4984084;28;20051;-79
2022/07/26 08:33:09;;;;;;;156.55;141.95;;;18.80;93.40;;;;;;4996742;28;20058;-80
2022/07/26 08:35:36;;;;;;;158.30;143.55;;;18.90;93.30;;;;;;4967039;28;20547;-79
2022/07/26 08:38:03;;;;;;;161.68;146.85;;;18.90;93.00;;;;;;4965152;28;20076;-79
2022/07/26 08:40:32;;;;;;;169.50;153.60;;;18.90;92.70;;;;;;4999580;28;20051;-80
2022/07/26 08:43:00;;;;;;;164.73;149.25;;;18.90;92.50;;;;;;4999737;28;20130;-79
2022/07/26 08:45:29;;;;;;;162.43;147.32;;;19.00;92.40;;;;;;4988189;28;20043;-79
2022/07/26 08:47:57;;;;;;;160.25;145.50;;;19.00;92.40;;;;;;4970629;28;20062;-80
2022/07/26 08:50:25;;;;;;;152.27;138.18;;;19.00;92.60;;;;;;4967260;28;20051;-79
2022/07/26 08:52:54;;;;;;;151.48;137.00;;;19.10;92.30;;;;;;4969501;28;20593;-79
2022/07/26 08:55:21;;;;;;;150.23;136.32;;;19.10;92.30;;;;;;4967425;28;20051;-80
2022/07/26 08:57:48;;;;;;;150.68;136.90;;;19.10;91.90;;;;;;4972602;28;20516;-79
2022/07/26 09:00:17;;;;;;;154.10;140.10;;;19.20;91.50;;;;;;4972404;28;20115;-79
2022/07/26 09:02:44;;;;;;;151.00;137.25;;;19.20;91.10;;;;;;4966695;28;20074;-79
2022/07/26 09:05:12;;;;;;;153.52;139.18;;;19.20;91.00;;;;;;4972364;28;20054;-79
2022/07/26 09:07:39;;;;;;;152.23;138.52;;;19.20;90.70;;;;;;4974160;28;20105;-79
2022/07/26 09:10:09;;;;;;;156.98;142.77;;;19.20;90.50;;;;;;4984951;28;20054;-80
2022/07/26 09:12:37;;;;;;;159.35;145.23;;;19.20;90.00;;;;;;4998533;28;20047;-80
2022/07/26 09:15:06;;;;;;;161.30;146.63;;;19.20;90.10;;;;;;4968975;28;20051;-80
2022/07/26 09:17:41;;;;;;;156.73;142.82;;;19.20;89.70;;;;;;4981722;28;20524;-80
2022/07/26 09:20:11;;;;;;;216.77;197.07;;;19.20;89.80;;;;;;4986992;28;20057;-79
2022/07/26 09:22:56;;;;;;;217.93;198.02;;;19.20;89.90;;;;;;4966746;28;20493;-79
2022/07/26 09:25:24;;;;;;;181.93;164.98;;;19.30;90.00;;;;;;5000637;28;20106;-80
2022/07/26 09:27:52;;;;;;;170.13;154.48;;;19.30;90.00;;;;;;4974183;28;20508;-80
2022/07/26 09:30:19;;;;;;;175.95;159.85;;;19.30;90.00;;;;;;4966906;28;20048;-79
2022/07/26 09:33:01;;;;;;;181.20;163.57;;;19.30;90.00;;;;;;4970389;28;20090;-78
2022/07/26 09:35:29;;;;;;;175.50;159.30;;;19.30;90.00;;;;;;4971475;28;20091;-78
2022/07/26 09:37:58;;;;;;;179.15;162.82;;;19.30;90.00;;;;;;4999931;28;20123;-78
2022/07/26 09:40:33;;;;;;;181.63;164.32;;;19.40;90.10;;;;;;4975139;28;20130;-78
2022/07/26 09:43:02;;;;;;;163.13;147.20;;;19.40;89.10;;;;;;4971985;28;20066;-79
2022/07/26 09:45:30;;;;;;;178.95;161.05;;;19.40;88.10;;;;;;4975726;28;20047;-79
2022/07/26 09:47:57;;;;;;;179.07;163.07;;;19.30;87.80;;;;;;4974996;28;20062;-79
2022/07/26 09:50:26;;;;;;;180.52;163.90;;;19.30;87.50;;;;;;5008202;28;20521;-79
2022/07/26 09:53:08;;;;;;;181.60;164.65;;;19.30;88.00;;;;;;4975110;28;20048;-79
2022/07/26 09:55:55;;;;;;;170.55;154.88;;;19.40;89.30;;;;;;4973084;28;20160;-78
2022/07/26 09:58:23;;;;;;;181.85;165.15;;;19.40;89.70;;;;;;4973574;28;20497;-79
2022/07/26 10:00:51;;;;;;;188.98;171.35;;;19.40;89.60;;;;;;4977930;28;20062;-79
2022/07/26 10:03:17;;;;;;;172.75;156.00;;;19.50;88.60;;;;;;4977025;28;20057;-79
2022/07/26 10:05:44;;;;;;;178.18;161.20;;;19.50;88.10;;;;;;4975062;28;20067;-79
2022/07/26 10:08:13;;;;;;;179.20;162.45;;;19.60;88.30;;;;;;4982388;28;20256;-79
2022/07/26 10:10:46;;;;;;;182.07;165.18;;;19.60;88.30;;;;;;4974870;28;20055;-79
2022/07/26 10:13:13;;;;;;;174.07;157.63;;;19.60;88.00;;;;;;4977157;28;20051;-79
2022/07/26 10:15:42;;;;;;;173.88;157.57;;;19.60;87.90;;;;;;5002531;28;20070;-79
2022/07/26 10:18:10;;;;;;;184.75;167.15;;;19.60;88.00;;;;;;5001019;28;20051;-79
2022/07/26 10:20:50;;;;;;;173.68;157.18;;;19.60;87.70;;;;;;4970565;28;20077;-79
2022/07/26 10:23:35;;;;;;;163.82;148.32;;;19.60;88.10;;;;;;4974482;28;20052;-81
2022/07/26 10:26:04;;;;;;;183.40;165.93;;;19.60;88.00;;;;;;4970360;28;20054;-79
2022/07/26 10:28:32;;;;;;;180.90;163.70;;;19.60;86.40;;;;;;4999198;28;20058;-79
2022/07/26 10:31:28;;;;;;;186.48;168.77;;;19.70;85.50;;;;;;4972426;28;20059;-78
2022/07/26 10:33:56;;;;;;;214.18;193.80;;;19.70;86.80;;;;;;5005665;28;20502;-78
2022/07/26 10:36:28;;;;;;;214.90;194.68;;;19.70;85.70;;;;;;5005377;28;20047;-78
2022/07/26 10:39:02;;;;;;;216.32;195.77;;;19.70;85.60;;;;;;4968611;28;20826;-79
2022/07/26 10:41:33;;;;;;;190.63;171.85;;;19.70;86.10;;;;;;4974087;28;20051;-80
2022/07/26 10:44:16;;;;;;;215.93;195.18;;;19.70;85.70;;;;;;4987399;28;20053;-82
2022/07/26 10:46:58;;;;;;;203.52;184.93;;;19.70;85.60;;;;;;4983885;28;20047;-78
2022/07/26 10:49:34;;;;;;;193.48;175.73;;;19.70;86.10;;;;;;4998470;28;20143;-80
2022/07/26 10:52:13;;;;;;;187.80;170.30;;;19.70;86.00;;;;;;4997412;28;20138;-80
2022/07/26 10:55:09;;;;;;;191.50;174.05;;;19.70;86.20;;;;;;4969733;28;20142;-79
2022/07/26 10:57:38;;;;;;;177.65;161.02;;;19.70;85.60;;;;;;4982044;28;20158;-80
2022/07/26 11:00:13;;;;;;;185.07;168.10;;;19.70;85.40;;;;;;4999509;28;20059;-80
2022/07/26 11:02:42;;;;;;;173.68;157.43;;;19.70;85.60;;;;;;4972290;28;20050;-80
2022/07/26 11:05:13;;;;;;;182.50;166.32;;;19.80;85.20;;;;;;5000296;28;20569;-80
2022/07/26 11:07:50;;;;;;;180.85;164.57;;;19.80;85.20;;;;;;4973138;28;20062;-79
2022/07/26 11:10:22;;;;;;;184.30;167.65;;;19.90;84.80;;;;;;4987477;28;20047;-79
2022/07/26 11:12:58;;;;;;;178.00;161.70;;;19.90;84.90;;;;;;4973413;28;20047;-79
2022/07/26 11:15:25;;;;;;;180.55;163.55;;;19.90;84.20;;;;;;5006793;28;20047;-79
2022/07/26 11:18:05;;;;;;;180.05;163.40;;;19.90;84.40;;;;;;4968243;28;20045;-80
2022/07/26 11:20:32;;;;;;;179.75;163.02;;;19.90;84.30;;;;;;5006827;28;20154;-81
2022/07/26 11:22:59;;;;;;;189.10;172.00;;;19.90;83.40;;;;;;4971690;28;20143;-80
2022/07/26 11:25:27;;;;;;;189.18;172.20;;;20.00;82.40;;;;;;4988083;28;20057;-80
2022/07/26 11:28:02;;;;;;;191.32;174.32;;;20.00;82.40;;;;;;4999072;28;20113;-79
2022/07/26 11:30:30;;;;;;;184.90;168.25;;;20.00;83.00;;;;;;4997337;28;20505;-80
2022/07/26 11:32:58;;;;;;;198.52;179.70;;;20.00;82.30;;;;;;4969517;28;20052;-80
2022/07/26 11:35:26;;;;;;;174.90;158.45;;;20.10;81.40;;;;;;4996282;28;20111;-80
2022/07/26 11:37:55;;;;;;;175.50;159.20;;;20.10;80.80;;;;;;4963716;28;20055;-80
2022/07/26 11:40:44;;;;;;;172.82;156.90;;;20.00;79.80;;;;;;4996748;28;20058;-80
2022/07/26 11:43:12;;;;;;;172.90;156.63;;;20.00;81.60;;;;;;4997496;28;20392;-80
2022/07/26 11:45:40;;;;;;;174.25;157.95;;;20.00;79.80;;;;;;4970061;28;20936;-80
2022/07/26 11:48:07;;;;;;;182.73;165.25;;;20.00;80.50;;;;;;4999206;28;20044;-82
2022/07/26 11:50:34;;;;;;;176.05;159.25;;;20.00;80.30;;;;;;4981680;28;20513;-81
2022/07/26 11:53:01;;;;;;;176.55;160.18;;;20.00;79.40;;;;;;4997411;28;20051;-81
2022/07/26 11:55:30;;;;;;;174.82;158.77;;;20.00;78.60;;;;;;4971106;28;20094;-80
2022/07/26 11:58:06;;;;;;;177.40;160.98;;;20.00;79.30;;;;;;4996648;28;20058;-79
2022/07/26 12:00:33;;;;;;;177.82;161.30;;;20.00;80.30;;;;;;5002299;28;20062;-81
2022/07/26 12:03:00;;;;;;;175.77;159.43;;;20.00;80.30;;;;;;4967715;28;20055;-80
2022/07/26 12:05:27;;;;;;;175.75;159.35;;;20.00;79.90;;;;;;4987775;28;20051;-80
2022/07/26 12:07:56;;;;;;;171.85;155.52;;;20.00;79.40;;;;;;4975419;28;20117;-80
2022/07/26 12:10:23;;;;;;;172.80;156.55;;;20.00;78.40;;;;;;4972947;28;20051;-80
2022/07/26 12:12:50;;;;;;;174.63;158.48;;;20.10;78.00;;;;;;4971208;28;20059;-79
2022/07/26 12:15:18;;;;;;;177.00;161.05;;;20.10;78.30;;;;;;4969487;28;20050;-79
2022/07/26 12:17:59;;;;;;;180.70;164.43;;;20.10;77.60;;;;;;4987084;28;20130;-79